Terminal Aerodrome Forecast
Issued by NWS Quad Cities IA IL

Home | Current Version | Previous Version | Text Only | Print | Product List | Glossary On
Versions: 1 2 3 4 5 6 7 8 9 10 11 12 13 14 15 16 17 18 19 20 21 22 23 24 25 26 27 28 29 30 31 32 33 34 35 36 37 38
055
FTUS43 KDVN 182335
TAFDBQ
TAF
KDBQ 182335Z 1900/1924 34013KT 1/2SM SN FZFG BKN005 OVC007
     FM190200 33012KT 3SM -SN BR OVC007
     FM190400 33011KT 5SM -SHSN OVC007
     FM190800 33009KT P6SM SCT012 BKN015
     FM191100 34009KT P6SM SKC=

USA.gov is the U.S. government's official web portal to all federal, state and local government web resources and services.